Time;durP1;ratioP1;P1;durP2;ratioP2;P2;SDS_P1;SDS_P2;PMS_P1;PMS_P2;Temp;Humidity;BMP_temperature;BMP_pressure;BME280_temperature;BME280_humidity;BME280_pressure;Samples;Min_cycle;Max_cycle;Signal;HPM_P1;HPM_P2
2022/04/26 03:37:29;;;;;;;8.60;3.53;;;;;;;5.87;100.00;101248.84;6247333;28;20128;-74
2022/04/26 03:40:30;;;;;;;9.00;3.28;;;;;;;5.83;100.00;101255.88;6246326;28;20319;-71
2022/04/26 03:43:32;;;;;;;7.55;4.00;;;;;;;5.79;100.00;101263.81;6246783;28;20421;-74
2022/04/26 03:46:33;;;;;;;5.65;3.17;;;;;;;5.75;100.00;101262.19;6246904;28;20061;-71
2022/04/26 03:49:35;;;;;;;7.53;3.50;;;;;;;5.74;100.00;101265.69;6246737;28;20436;-74
2022/04/26 03:52:39;;;;;;;7.63;3.97;;;;;;;5.70;100.00;101267.53;6246411;28;20056;-71
2022/04/26 03:55:40;;;;;;;5.97;3.45;;;;;;;5.69;100.00;101262.34;6246669;28;20394;-74
2022/04/26 03:58:42;;;;;;;7.55;3.47;;;;;;;5.66;100.00;101268.47;6247072;28;20049;-74
2022/04/26 04:01:43;;;;;;;10.63;2.92;;;;;;;5.67;100.00;101270.19;6245874;28;20481;-71
2022/04/26 04:04:46;;;;;;;6.32;3.65;;;;;;;5.62;100.00;101268.59;6246097;28;20046;-73
2022/04/26 04:07:48;;;;;;;7.55;3.40;;;;;;;5.62;100.00;101274.66;6246668;28;20089;-71
2022/04/26 04:10:50;;;;;;;7.22;3.80;;;;;;;5.61;100.00;101275.56;6245911;28;20045;-71
2022/04/26 04:13:51;;;;;;;7.68;3.17;;;;;;;5.59;100.00;101274.75;6246429;28;20425;-71
2022/04/26 04:16:55;;;;;;;9.35;3.65;;;;;;;5.53;100.00;101280.97;6246851;28;20057;-71
2022/04/26 04:19:56;;;;;;;6.13;3.20;;;;;;;5.51;100.00;101285.38;6246077;28;20060;-71
2022/04/26 04:22:59;;;;;;;6.18;3.53;;;;;;;5.51;100.00;101281.91;6246225;28;20050;-71
2022/04/26 04:26:00;;;;;;;5.70;3.30;;;;;;;5.49;100.00;101287.13;6246532;28;20762;-74
2022/04/26 04:29:02;;;;;;;9.57;4.00;;;;;;;5.44;100.00;101285.53;6246154;28;20041;-73
2022/04/26 04:32:04;;;;;;;5.95;2.83;;;;;;;5.39;100.00;101290.84;6245710;28;20423;-71
2022/04/26 04:35:07;;;;;;;8.70;3.85;;;;;;;5.39;100.00;101290.00;6246217;28;20049;-71
2022/04/26 04:38:09;;;;;;;9.32;3.92;;;;;;;5.40;100.00;101294.31;6246375;28;20489;-72
2022/04/26 04:41:11;;;;;;;6.85;3.78;;;;;;;5.38;100.00;101285.69;6245592;28;20771;-71
2022/04/26 04:44:12;;;;;;;7.13;3.97;;;;;;;5.35;100.00;101291.81;6246237;28;20055;-73
2022/04/26 04:47:13;;;;;;;5.60;3.40;;;;;;;5.35;100.00;101287.47;6246030;28;20053;-71
2022/04/26 04:50:15;;;;;;;7.50;3.88;;;;;;;5.38;100.00;101289.16;6245975;28;20052;-71
2022/04/26 04:53:19;;;;;;;6.43;3.83;;;;;;;5.45;100.00;101295.94;6245510;28;20460;-71
2022/04/26 04:56:23;;;;;;;7.68;3.88;;;;;;;5.49;100.00;101301.91;6246483;28;20061;-71
2022/04/26 04:59:24;;;;;;;5.03;2.92;;;;;;;5.49;100.00;101304.53;6246043;28;20049;-71
2022/04/26 05:02:25;;;;;;;7.40;4.07;;;;;;;5.50;100.00;101309.72;6245271;28;20057;-72
2022/04/26 05:05:27;;;;;;;9.25;3.38;;;;;;;5.54;100.00;101315.69;6245953;28;20424;-74
2022/04/26 05:08:30;;;;;;;8.00;3.08;;;;;;;5.56;100.00;101319.16;6245829;28;20052;-71
2022/04/26 05:11:31;;;;;;;5.72;3.30;;;;;;;5.63;100.00;101317.25;6245344;28;20045;-74
2022/04/26 05:14:33;;;;;;;5.05;3.45;;;;;;;5.57;100.00;101319.09;6245378;28;20056;-74
2022/04/26 05:17:34;;;;;;;6.55;3.47;;;;;;;5.54;100.00;101320.91;6250045;28;20050;-74
2022/04/26 05:20:36;;;;;;;4.90;2.95;;;;;;;5.55;100.00;101320.91;6249277;28;20057;-72
2022/04/26 05:26:57;;;;;;;7.10;3.00;;;;;;;5.69;100.00;101331.00;6250160;28;20450;-72
2022/04/26 05:29:59;;;;;;;16.45;3.63;;;;;;;5.72;100.00;101320.50;6249736;28;20050;-71
2022/04/26 05:33:00;;;;;;;4.93;2.65;;;;;;;5.84;100.00;101325.41;6249473;28;20053;-71
2022/04/26 05:36:01;;;;;;;5.05;2.78;;;;;;;5.95;100.00;101324.31;6249746;28;20045;-71
2022/04/26 05:39:04;;;;;;;3.83;2.28;;;;;;;5.97;100.00;101332.97;6249729;28;20501;-71
2022/04/26 05:42:06;;;;;;;5.60;2.72;;;;;;;5.98;100.00;101319.88;6249236;28;20053;-72
2022/04/26 05:45:08;;;;;;;5.20;2.72;;;;;;;6.03;100.00;101324.97;6251379;28;20049;-72
2022/04/26 05:48:11;;;;;;;8.57;3.30;;;;;;;6.15;100.00;101323.81;6248899;28;20406;-75
2022/04/26 05:51:12;;;;;;;5.07;3.10;;;;;;;6.18;100.00;101328.97;6247959;28;20126;-73
2022/04/26 05:54:15;;;;;;;6.25;2.83;;;;;;;6.24;100.00;101329.66;6248143;28;20061;-74
2022/04/26 05:57:16;;;;;;;5.65;2.45;;;;;;;6.32;100.00;101321.63;6248716;28;20076;-72
2022/04/26 06:00:18;;;;;;;4.97;2.58;;;;;;;6.37;100.00;101318.91;6247811;28;20056;-71
2022/04/26 06:03:19;;;;;;;3.92;2.30;;;;;;;6.37;100.00;101330.19;6249333;28;20057;-73
2022/04/26 06:06:21;;;;;;;5.20;2.17;;;;;;;6.37;100.00;101324.97;6249097;28;20221;-74
2022/04/26 06:09:23;;;;;;;9.02;2.83;;;;;;;6.42;100.00;101319.63;6249136;28;20049;-72
2022/04/26 06:12:26;;;;;;;8.38;2.97;;;;;;;6.50;100.00;101310.69;6248159;28;20064;-72
2022/04/26 06:15:27;;;;;;;7.05;2.50;;;;;;;6.53;100.00;101317.56;6249248;28;20102;-73
2022/04/26 06:18:29;;;;;;;11.65;3.50;;;;;;;6.64;100.00;101322.53;6249110;28;20052;-72
2022/04/26 06:21:30;;;;;;;2.17;1.60;;;;;;;6.67;100.00;101319.81;6247990;28;20049;-72
2022/04/26 06:24:33;;;;;;;4.32;2.65;;;;;;;6.67;100.00;101320.66;6248755;28;20053;-72
2022/04/26 06:27:34;;;;;;;5.15;2.78;;;;;;;6.71;100.00;101321.44;6245833;28;20060;-73
2022/04/26 06:30:38;;;;;;;2.78;1.85;;;;;;;6.77;100.00;101331.72;6247829;28;20046;-72
2022/04/26 06:33:39;;;;;;;3.50;2.03;;;;;;;6.84;100.00;101328.88;6247478;28;20179;-73
2022/04/26 06:36:40;;;;;;;4.97;2.50;;;;;;;6.90;100.00;101334.81;6248346;28;20745;-71
2022/04/26 06:39:43;;;;;;;5.25;1.88;;;;;;;6.97;100.00;101339.00;6244949;28;20532;-71
2022/04/26 06:42:44;;;;;;;4.05;2.00;;;;;;;7.03;100.00;101347.50;6240564;28;20699;-71
2022/04/26 06:45:47;;;;;;;3.00;1.52;;;;;;;7.07;100.00;101346.50;6247124;28;20064;-71
2022/04/26 06:48:49;;;;;;;2.63;1.90;;;;;;;7.14;100.00;101354.19;6248361;28;20045;-73
2022/04/26 06:51:50;;;;;;;7.38;2.20;;;;;;;7.19;100.00;101347.91;6247016;28;20056;-71
2022/04/26 06:54:53;;;;;;;3.50;2.15;;;;;;;7.25;100.00;101350.34;6248079;28;20527;-71
2022/04/26 06:57:54;;;;;;;3.20;1.83;;;;;;;7.27;100.00;101345.94;6247925;28;20606;-71
2022/04/26 07:00:55;;;;;;;4.70;2.90;;;;;;;7.28;100.00;101352.00;6247224;28;20049;-71
2022/04/26 07:03:57;;;;;;;3.28;2.17;;;;;;;7.31;100.00;101349.28;6248032;28;20136;-72
2022/04/26 07:06:58;;;;;;;2.80;1.73;;;;;;;7.32;100.00;101353.63;6240383;28;20049;-71
2022/04/26 07:10:01;;;;;;;4.07;2.05;;;;;;;7.37;100.00;101355.19;6240505;28;20360;-71
2022/04/26 07:13:02;;;;;;;3.17;1.95;;;;;;;7.43;100.00;101351.53;6250490;28;20050;-72
2022/04/26 07:16:05;;;;;;;3.88;2.40;;;;;;;7.51;100.00;101353.94;6246976;28;20053;-71
2022/04/26 07:19:07;;;;;;;2.30;1.70;;;;;;;7.62;100.00;101354.44;6240779;28;20752;-71
2022/04/26 07:22:09;;;;;;;4.50;2.65;;;;;;;7.75;100.00;101360.16;6222166;28;20046;-72
2022/04/26 07:25:12;;;;;;;3.50;2.13;;;;;;;7.79;100.00;101353.91;6222831;28;20045;-71
2022/04/26 07:28:13;;;;;;;7.75;2.53;;;;;;;7.87;100.00;101359.75;6233932;28;20049;-71
2022/04/26 07:31:15;;;;;;;4.93;1.80;;;;;;;7.97;100.00;101361.16;6246238;28;20060;-71
2022/04/26 07:34:22;;;;;;;4.47;2.10;;;;;;;8.08;100.00;101355.56;6247348;28;20053;-71
2022/04/26 07:37:23;;;;;;;3.80;2.25;;;;;;;8.17;100.00;101359.66;6246812;28;20083;-72
2022/04/26 07:40:26;;;;;;;6.75;2.78;;;;;;;8.29;100.00;101359.25;6245364;28;20551;-73
2022/04/26 07:43:27;;;;;;;3.90;2.05;;;;;;;8.38;100.00;101365.03;6246932;28;20049;-70
2022/04/26 07:46:29;;;;;;;4.93;2.75;;;;;;;8.48;100.00;101369.97;6246641;28;20501;-71
2022/04/26 07:49:30;;;;;;;3.25;2.20;;;;;;;8.55;100.00;101366.25;6246726;28;20068;-71
2022/04/26 07:52:32;;;;;;;3.90;1.98;;;;;;;8.63;100.00;101369.44;6246076;28;20465;-71
2022/04/26 07:55:37;;;;;;;3.75;2.35;;;;;;;8.73;100.00;101370.84;6246795;28;20516;-71
2022/04/26 07:58:38;;;;;;;3.67;2.33;;;;;;;8.88;100.00;101366.78;6246548;28;20050;-71
2022/04/26 08:01:40;;;;;;;4.93;2.42;;;;;;;9.02;100.00;101374.16;6246009;28;20046;-71
2022/04/26 08:04:42;;;;;;;6.57;2.30;;;;;;;9.15;100.00;101368.41;6246392;28;20053;-71
2022/04/26 08:07:44;;;;;;;4.28;2.63;;;;;;;9.22;100.00;101378.66;6246820;28;20053;-70
2022/04/26 08:10:47;;;;;;;4.03;2.20;;;;;;;9.36;100.00;101382.47;6245738;28;20046;-70
2022/04/26 08:13:48;;;;;;;6.43;2.10;;;;;;;9.45;100.00;101375.16;6246683;28;20046;-70
2022/04/26 08:16:50;;;;;;;3.67;2.70;;;;;;;9.52;100.00;101385.34;6246334;28;20053;-70
2022/04/26 08:19:51;;;;;;;5.00;2.50;;;;;;;9.69;100.00;101387.34;6245888;28;20050;-70
2022/04/26 08:22:52;;;;;;;6.00;2.53;;;;;;;9.84;100.00;101393.75;6245873;28;20053;-70
2022/04/26 08:29:14;;;;;;;3.92;2.50;;;;;;;10.09;100.00;101391.84;6245071;28;20431;-70
2022/04/26 08:32:16;;;;;;;4.88;2.42;;;;;;;10.28;100.00;101399.84;6244972;28;20135;-70
2022/04/26 08:35:20;;;;;;;5.45;2.25;;;;;;;10.37;100.00;101403.88;6246342;28;20054;-71
2022/04/26 08:38:21;;;;;;;5.88;2.63;;;;;;;10.52;100.00;101413.72;6245869;28;20049;-71
2022/04/26 08:41:24;;;;;;;6.00;2.60;;;;;;;10.60;100.00;101400.25;6245679;28;20421;-71
2022/04/26 08:44:26;;;;;;;4.47;2.72;;;;;;;10.70;100.00;101403.34;6245968;28;20061;-70
2022/04/26 08:51:03;;;;;;;4.60;2.50;;;;;;;10.91;100.00;101411.16;6247297;28;20045;-70
2022/04/26 08:54:04;;;;;;;3.67;2.42;;;;;;;11.05;100.00;101417.59;6250857;28;20060;-71
2022/04/26 08:57:08;;;;;;;3.95;2.08;;;;;;;11.17;100.00;101412.63;6244745;28;20049;-70
2022/04/26 09:00:11;;;;;;;4.53;2.65;;;;;;;11.27;100.00;101415.69;6250452;28;20080;-70
2022/04/26 09:03:13;;;;;;;3.85;2.03;;;;;;;11.38;100.00;101416.03;6250010;28;20528;-71
2022/04/26 09:06:15;;;;;;;4.75;2.33;;;;;;;11.39;100.00;101417.75;6250714;28;20524;-72
2022/04/26 09:09:18;;;;;;;5.15;2.92;;;;;;;11.40;100.00;101416.84;6249334;28;20163;-71
2022/04/26 09:12:21;;;;;;;5.10;1.95;;;;;;;11.43;97.13;101418.47;6249130;28;20071;-71
2022/04/26 09:15:23;;;;;;;5.57;2.30;;;;;;;11.45;99.96;101416.63;6249989;28;20053;-71
2022/04/26 09:18:27;;;;;;;4.93;2.42;;;;;;;11.58;97.03;101409.88;6249176;28;20363;-71
2022/04/26 09:21:30;;;;;;;4.28;2.47;;;;;;;11.68;96.11;101413.78;6240135;28;20068;-71
2022/04/26 09:25:03;;;;;;;5.45;2.65;;;;;;;11.76;97.94;101416.03;6231278;28;20132;-71
2022/04/26 09:28:06;;;;;;;5.35;2.50;;;;;;;11.86;98.00;101413.84;6238007;28;20411;-71
2022/04/26 09:31:18;;;;;;;9.70;2.45;;;;;;;11.93;91.35;101412.63;6249195;28;20057;-71
2022/04/26 09:34:23;;;;;;;5.65;2.22;;;;;;;12.07;92.67;101417.22;6250165;28;20065;-71
2022/04/26 09:37:28;;;;;;;3.22;2.50;;;;;;;12.11;91.35;101414.34;6249206;28;20084;-71
2022/04/26 09:40:32;;;;;;;4.53;2.28;;;;;;;12.19;91.12;101419.25;6248559;28;20053;-70
2022/04/26 09:43:34;;;;;;;5.88;3.22;;;;;;;12.41;92.53;101422.53;6247566;28;20052;-71
2022/04/26 09:46:53;;;;;;;4.53;2.00;;;;;;;12.44;88.95;101409.22;6248301;28;20057;-71
2022/04/26 09:49:55;;;;;;;5.65;2.88;;;;;;;12.58;90.73;101423.44;6249054;28;20051;-70
2022/04/26 09:52:56;;;;;;;4.57;2.60;;;;;;;12.67;88.27;101420.34;6248934;28;20517;-70
2022/04/26 09:56:00;;;;;;;3.47;1.98;;;;;;;12.72;87.52;101418.34;6248725;28;20046;-70
2022/04/26 09:59:04;;;;;;;6.55;2.65;;;;;;;12.77;89.28;101418.97;6248686;28;20049;-70
2022/04/26 10:02:10;;;;;;;3.78;2.15;;;;;;;12.95;88.63;101415.38;6243255;28;20056;-71
2022/04/26 10:05:15;;;;;;;2.90;2.28;;;;;;;13.10;87.97;101420.75;6246948;28;20049;-71
2022/04/26 10:08:18;;;;;;;3.95;2.38;;;;;;;13.15;85.04;101424.84;6246516;28;20057;-70
2022/04/26 10:11:21;;;;;;;5.20;2.08;;;;;;;13.16;86.65;101426.56;6243607;28;20045;-70
2022/04/26 10:14:24;;;;;;;4.40;2.60;;;;;;;13.26;83.66;101421.66;6240763;28;20061;-70
2022/04/26 10:17:26;;;;;;;6.50;2.53;;;;;;;13.34;82.01;101430.03;6249125;28;20045;-70
2022/04/26 10:20:45;;;;;;;4.43;2.50;;;;;;;13.44;82.10;101425.09;6244477;28;20047;-71
2022/04/26 10:24:12;;;;;;;3.42;2.05;;;;;;;13.36;82.05;101424.69;6250334;28;21094;-70
2022/04/26 10:27:19;;;;;;;4.30;2.40;;;;;;;13.52;83.62;101432.63;6239289;28;20053;-71
2022/04/26 10:30:48;;;;;;;2.65;2.15;;;;;;;13.64;79.74;101431.94;6237992;28;20057;-70
2022/04/26 10:33:50;;;;;;;5.55;2.17;;;;;;;13.52;76.04;101422.06;6242391;28;20053;-70
2022/04/26 10:36:52;;;;;;;5.43;2.50;;;;;;;13.57;78.05;101425.28;6239881;28;20042;-70
2022/04/26 10:40:01;;;;;;;4.05;2.50;;;;;;;13.68;77.40;101415.00;6249339;28;20060;-70
2022/04/26 10:43:07;;;;;;;3.90;2.20;;;;;;;14.07;80.77;101427.72;6241685;28;20443;-70
2022/04/26 10:46:10;;;;;;;2.75;2.03;;;;;;;14.29;73.09;101429.16;6241584;28;20648;-71
2022/04/26 10:49:42;;;;;;;3.20;1.58;;;;;;;14.26;73.99;101422.28;6242524;28;20049;-71
2022/04/26 10:52:49;;;;;;;4.05;2.10;;;;;;;14.52;71.21;101419.91;6247238;28;20048;-71
2022/04/26 10:56:00;;;;;;;4.50;2.35;;;;;;;14.59;75.47;101424.75;6243891;28;20045;-70
2022/04/26 10:59:12;;;;;;;4.20;3.13;;;;;;;14.41;75.38;101425.81;6247772;28;20467;-70
2022/04/26 11:02:15;;;;;;;5.45;2.08;;;;;;;14.62;76.60;101426.34;6242158;28;20056;-70
2022/04/26 11:05:24;;;;;;;4.40;2.60;;;;;;;14.34;73.38;101429.72;6223330;28;20509;-70
2022/04/26 11:08:26;;;;;;;3.45;2.20;;;;;;;14.13;73.41;101426.56;6223336;28;20046;-71
2022/04/26 11:11:28;;;;;;;3.97;2.08;;;;;;;13.94;73.38;101434.66;6233018;28;20049;-71
2022/04/26 11:14:31;;;;;;;4.25;2.70;;;;;;;13.95;74.97;101434.59;6246170;28;20073;-71
2022/04/26 11:17:33;;;;;;;3.88;2.42;;;;;;;13.85;73.20;101429.88;6240017;28;20089;-71
2022/04/26 11:20:36;;;;;;;2.90;1.77;;;;;;;14.12;76.08;101430.13;6240965;28;20049;-71
2022/04/26 11:30:24;;;;;;;3.78;1.92;;;;;;;15.05;70.07;101431.72;6237422;28;20062;-71
2022/04/26 11:33:28;;;;;;;5.40;2.10;;;;;;;14.85;71.65;101431.16;6235720;28;20169;-71
2022/04/26 11:36:29;;;;;;;5.20;1.90;;;;;;;14.62;69.53;101436.94;6235927;28;20046;-70
2022/04/26 11:39:32;;;;;;;4.80;2.33;;;;;;;15.69;74.03;101428.56;6234022;28;20053;-71
2022/04/26 11:42:34;;;;;;;3.38;2.10;;;;;;;17.61;63.89;101436.81;6231830;28;20041;-71
2022/04/26 11:45:37;;;;;;;10.85;3.67;;;;;;;17.63;58.40;101430.44;6238010;28;20045;-72
2022/04/26 11:48:39;;;;;;;4.53;1.90;;;;;;;17.26;62.14;101434.91;6239892;28;20188;-72
2022/04/26 11:51:41;;;;;;;2.72;2.00;;;;;;;18.35;55.58;101434.94;6235845;28;20038;-73
2022/04/26 11:54:42;;;;;;;4.43;2.10;;;;;;;19.07;53.27;101438.31;6234558;28;20050;-72
2022/04/26 11:57:43;;;;;;;4.03;2.33;;;;;;;18.36;54.98;101429.53;6233976;28;20049;-72
2022/04/26 12:00:57;;;;;;;2.42;2.10;;;;;;;18.87;51.87;101429.22;6221204;28;20057;-72
2022/04/26 12:03:59;;;;;;;2.38;1.90;;;;;;;19.67;48.91;101433.63;6243586;28;20424;-72
2022/04/26 12:07:02;;;;;;;4.05;2.17;;;;;;;19.03;52.26;101434.22;6245860;28;20412;-72
2022/04/26 12:10:03;;;;;;;3.83;2.30;;;;;;;18.49;52.34;101429.47;6242939;28;20053;-73
2022/04/26 12:13:06;;;;;;;4.05;1.70;;;;;;;18.75;51.22;101431.00;6237967;28;20041;-72
2022/04/26 12:16:16;;;;;;;2.70;2.00;;;;;;;19.66;44.53;101431.91;6231711;28;20058;-71
2022/04/26 12:19:17;;;;;;;2.97;1.60;;;;;;;19.91;42.48;101422.75;6233973;28;20053;-71
2022/04/26 12:22:19;;;;;;;3.08;1.90;;;;;;;19.80;44.35;101422.78;6225138;28;20046;-72
2022/04/26 12:25:20;;;;;;;2.20;1.42;;;;;;;19.50;45.62;101422.44;6221690;28;20060;-71
2022/04/26 12:28:22;;;;;;;3.35;1.73;;;;;;;18.59;46.98;101424.28;6234798;28;20069;-71
2022/04/26 12:31:29;;;;;;;3.70;2.03;;;;;;;17.94;48.76;101417.59;6240482;28;20046;-72
2022/04/26 12:34:30;;;;;;;3.80;1.88;;;;;;;17.39;51.18;101425.06;6251536;28;20057;-72
2022/04/26 12:37:34;;;;;;;3.75;1.98;;;;;;;16.89;52.15;101426.81;6251190;28;20053;-71
2022/04/26 12:40:37;;;;;;;3.55;2.10;;;;;;;16.61;51.81;101430.47;6245547;28;20073;-70
2022/04/26 12:43:38;;;;;;;6.40;2.25;;;;;;;16.62;54.92;101423.34;6248590;28;20509;-70
2022/04/26 12:53:31;;;;;;;2.20;1.55;;;;;;;19.42;44.69;101424.03;6250806;28;20049;-70
2022/04/26 12:56:32;;;;;;;2.22;1.60;;;;;;;19.90;41.69;101421.91;6250651;28;20187;-70
2022/04/26 12:59:38;;;;;;;2.53;1.30;;;;;;;20.15;41.53;101415.41;6250734;28;20050;-70
2022/04/26 13:02:40;;;;;;;2.67;1.33;;;;;;;20.57;41.52;101428.81;6249971;28;20049;-70
2022/04/26 13:05:45;;;;;;;2.97;1.55;;;;;;;20.66;41.36;101424.50;6250569;28;20061;-70
2022/04/26 13:08:48;;;;;;;2.63;1.83;;;;;;;20.83;38.23;101420.41;6247382;28;20046;-71
2022/04/26 13:11:52;;;;;;;1.83;1.60;;;;;;;20.95;38.04;101422.03;6245477;28;20052;-70
2022/04/26 13:14:53;;;;;;;4.45;1.63;;;;;;;20.93;38.93;101419.47;6249620;28;20053;-71
2022/04/26 13:17:57;;;;;;;4.63;2.08;;;;;;;21.63;38.91;101423.19;6250021;28;20049;-71
2022/04/26 13:20:59;;;;;;;2.03;1.50;;;;;;;21.53;37.46;101420.47;6249425;28;20103;-70
2022/04/26 13:24:01;;;;;;;1.80;1.35;;;;;;;21.95;38.07;101408.72;6250008;28;20052;-70
2022/04/26 13:27:02;;;;;;;2.03;1.45;;;;;;;22.44;34.68;101414.97;6249634;28;20394;-71
2022/04/26 13:30:05;;;;;;;2.35;1.58;;;;;;;22.34;36.26;101419.47;6249736;28;20049;-71
2022/04/26 13:33:08;;;;;;;3.90;1.90;;;;;;;22.54;35.84;101411.28;6249696;28;20046;-71
2022/04/26 13:36:09;;;;;;;3.90;2.10;;;;;;;22.81;35.38;101411.50;6248740;28;20072;-70
2022/04/26 13:39:11;;;;;;;3.80;1.60;;;;;;;23.49;32.40;101414.78;6249844;28;20052;-70
2022/04/26 13:42:13;;;;;;;3.10;1.70;;;;;;;23.25;33.82;101420.69;6248984;28;20528;-70
2022/04/26 13:45:15;;;;;;;1.77;1.42;;;;;;;22.92;34.31;101417.56;6247759;28;20265;-70
2022/04/26 13:48:19;;;;;;;2.78;1.63;;;;;;;22.03;36.04;101419.59;6248854;28;20431;-69
2022/04/26 13:51:21;;;;;;;3.10;2.53;;;;;;;22.08;37.00;101414.66;6248695;28;20076;-70
2022/04/26 13:54:23;;;;;;;3.38;2.20;;;;;;;22.72;35.63;101419.44;6249180;28;20132;-70
2022/04/26 13:57:24;;;;;;;2.58;1.95;;;;;;;23.88;33.10;101418.09;6247767;28;20060;-70
2022/04/26 14:00:26;;;;;;;2.67;1.98;;;;;;;25.03;31.08;101422.59;6246702;28;20073;-70
2022/04/26 14:03:28;;;;;;;3.20;1.70;;;;;;;25.23;30.07;101409.75;6248649;28;20061;-70
2022/04/26 14:06:30;;;;;;;3.67;2.25;;;;;;;25.81;27.87;101411.69;6248518;28;20056;-70
2022/04/26 14:09:31;;;;;;;3.75;1.70;;;;;;;25.88;28.86;101414.53;6241882;28;20049;-70
2022/04/26 14:12:34;;;;;;;2.63;1.80;;;;;;;25.85;27.99;101412.19;6247327;28;20049;-71
2022/04/26 14:22:14;;;;;;;2.22;1.88;;;;;;;23.28;32.41;101410.50;6246888;28;20046;-70
2022/04/26 14:25:15;;;;;;;4.93;2.60;;;;;;;24.19;31.40;101415.88;6248130;28;20527;-70
2022/04/26 14:28:17;;;;;;;3.40;2.75;;;;;;;22.93;34.45;101413.88;6248172;28;20049;-70
2022/04/26 14:31:18;;;;;;;4.40;2.72;;;;;;;21.71;35.43;101419.78;6247330;28;20053;-70
2022/04/26 14:34:22;;;;;;;5.25;2.88;;;;;;;23.43;32.68;101418.06;6248805;28;20053;-71
2022/04/26 14:37:23;;;;;;;4.53;2.85;;;;;;;23.18;32.67;101425.81;6247900;28;20421;-70
2022/04/26 14:40:25;;;;;;;4.93;2.78;;;;;;;21.62;34.21;101421.50;6247253;28;20051;-70
2022/04/26 14:43:26;;;;;;;8.07;3.45;;;;;;;21.02;36.40;101425.84;6245314;28;20048;-70
2022/04/26 14:46:28;;;;;;;4.32;2.38;;;;;;;22.51;33.03;101424.09;6248410;28;20046;-70
2022/04/26 14:49:31;;;;;;;4.70;2.97;;;;;;;23.63;30.81;101419.66;6247077;28;20057;-70
2022/04/26 14:52:33;;;;;;;4.88;2.78;;;;;;;22.71;32.66;101431.13;6247207;28;20175;-69
2022/04/26 14:55:36;;;;;;;4.13;2.38;;;;;;;21.96;34.01;101421.13;6232186;28;20045;-69
2022/04/26 14:58:38;;;;;;;4.22;2.70;;;;;;;20.89;34.06;101423.41;6223281;28;20054;-69
2022/04/26 15:01:40;;;;;;;3.13;1.92;;;;;;;22.20;35.88;101429.59;6222876;28;20076;-71
2022/04/26 15:04:43;;;;;;;3.97;2.75;;;;;;;22.51;31.61;101418.75;6223229;28;20049;-71
2022/04/26 15:11:03;;;;;;;3.55;2.42;;;;;;;21.98;33.48;101416.47;6243054;28;20053;-67
2022/04/26 15:17:23;;;;;;;4.15;2.38;;;;;;;23.66;30.18;101415.84;6247463;28;20045;-67
2022/04/26 15:20:26;;;;;;;3.15;2.28;;;;;;;21.52;32.35;101415.25;6247114;28;20049;-67
2022/04/26 15:23:28;;;;;;;3.80;2.38;;;;;;;20.26;37.54;101426.03;6247242;28;20042;-67
2022/04/26 15:26:29;;;;;;;7.35;3.05;;;;;;;20.20;36.16;101417.69;6247608;28;20061;-67
2022/04/26 15:29:31;;;;;;;6.00;2.85;;;;;;;18.90;40.57;101442.31;6247061;28;20155;-67
2022/04/26 15:32:33;;;;;;;6.45;2.97;;;;;;;20.02;38.75;101434.22;6246756;28;20505;-72
2022/04/26 15:35:36;;;;;;;6.68;3.38;;;;;;;21.76;35.63;101433.63;6247375;28;20057;-73
2022/04/26 15:38:39;;;;;;;9.10;4.72;;;;;;;20.12;38.64;101431.69;6247278;28;20145;-67
2022/04/26 15:41:40;;;;;;;9.82;4.20;;;;;;;19.72;41.03;101442.09;6246233;28;20199;-68
2022/04/26 15:44:41;;;;;;;4.72;2.97;;;;;;;19.98;43.85;101442.63;6247161;28;20049;-68
2022/04/26 15:47:43;;;;;;;4.07;2.60;;;;;;;21.14;42.07;101443.50;6246995;28;20419;-67
2022/04/26 15:50:45;;;;;;;6.68;3.42;;;;;;;20.58;42.69;101440.38;6246160;28;20059;-70
2022/04/26 15:53:47;;;;;;;4.43;2.70;;;;;;;21.68;40.55;101453.03;6246901;28;20056;-70
2022/04/26 15:56:48;;;;;;;4.10;2.63;;;;;;;21.23;41.17;101440.03;6246697;28;20050;-69
2022/04/26 15:59:49;;;;;;;7.82;2.85;;;;;;;23.39;38.15;101447.03;6245815;28;20057;-70
2022/04/26 16:02:51;;;;;;;4.95;2.50;;;;;;;22.58;38.32;101467.25;6246057;28;20045;-70
2022/04/26 16:05:54;;;;;;;3.78;2.72;;;;;;;23.38;37.81;101452.53;6246781;28;20088;-70
2022/04/26 16:20:28;;;;;;;4.40;2.70;;;;;;;23.41;37.19;101460.28;6246563;28;20045;-72
2022/04/26 16:22:16;;;;;;;7.70;3.35;;;;;;;18.16;47.66;101459.44;6245006;28;20120;-67
2022/04/26 16:25:17;;;;;;;6.63;3.40;;;;;;;17.62;49.84;101465.09;6246218;28;20046;-72
2022/04/26 16:28:18;;;;;;;7.18;3.63;;;;;;;17.09;52.47;101469.75;6246150;28;20060;-69
2022/04/26 16:31:24;;;;;;;7.68;3.70;;;;;;;16.88;54.85;101474.72;6245761;28;20057;-70
2022/04/26 16:34:25;;;;;;;4.45;2.40;;;;;;;16.90;55.55;101473.66;6246179;28;20041;-71
2022/04/26 16:37:28;;;;;;;6.65;3.03;;;;;;;16.30;56.25;101479.41;6246245;28;20054;-71
2022/04/26 16:40:32;;;;;;;5.78;4.07;;;;;;;16.22;56.64;101485.25;6240712;28;20053;-71
2022/04/26 16:43:33;;;;;;;7.55;3.80;;;;;;;16.11;56.46;101484.22;6229734;28;20518;-71
2022/04/26 16:46:36;;;;;;;8.68;3.92;;;;;;;16.06;58.02;101483.69;6245378;28;20045;-72
2022/04/26 16:49:39;;;;;;;8.02;3.42;;;;;;;15.96;58.36;101499.31;6246011;28;20049;-72
2022/04/26 16:52:43;;;;;;;7.95;3.50;;;;;;;15.69;57.66;101493.97;6245209;28;21265;-72
2022/04/26 16:55:46;;;;;;;6.25;3.00;;;;;;;15.68;60.52;101494.94;6246069;28;20578;-72
2022/04/26 16:58:47;;;;;;;7.40;4.20;;;;;;;15.71;59.96;101492.94;6245786;28;20050;-73
2022/04/26 17:01:49;;;;;;;6.53;3.17;;;;;;;15.54;59.27;101500.22;6245221;28;20448;-72
2022/04/26 17:04:50;;;;;;;6.45;3.88;;;;;;;15.13;61.22;101507.09;6246029;28;20489;-72
2022/04/26 17:07:55;;;;;;;7.13;3.50;;;;;;;14.83;62.36;101514.19;6227265;28;20494;-73
2022/04/26 17:11:41;;;;;;;9.35;3.50;;;;;;;14.82;63.45;101513.34;6221582;28;20056;-73
2022/04/26 17:14:20;;;;;;;8.00;4.15;;;;;;;14.83;63.90;101524.78;6225552;28;20052;-73
2022/04/26 17:17:21;;;;;;;5.65;3.83;;;;;;;14.42;63.67;101512.97;6226093;28;20092;-73
2022/04/26 17:20:23;;;;;;;9.50;3.80;;;;;;;14.28;65.36;101517.34;6229674;28;20519;-73
2022/04/26 17:23:25;;;;;;;7.38;3.65;;;;;;;14.31;66.57;101522.47;6246446;28;20046;-72
2022/04/26 17:26:26;;;;;;;6.30;3.97;;;;;;;14.16;64.48;101537.38;6249954;28;20687;-73
2022/04/26 17:29:28;;;;;;;6.93;3.17;;;;;;;14.20;65.42;101547.69;6234066;28;20065;-73
2022/04/26 17:32:29;;;;;;;4.40;2.88;;;;;;;14.14;65.31;101547.19;6239544;28;20489;-76
2022/04/26 17:35:31;;;;;;;6.30;4.03;;;;;;;14.00;64.53;101544.47;6250052;28;20064;-71
2022/04/26 17:38:34;;;;;;;7.82;3.58;;;;;;;13.89;66.33;101552.97;6249603;28;20053;-72
2022/04/26 17:41:35;;;;;;;7.28;3.45;;;;;;;13.83;66.10;101551.50;6248893;28;20054;-72
2022/04/26 17:44:37;;;;;;;5.78;3.15;;;;;;;13.76;65.58;101558.06;6249679;28;20512;-72
2022/04/26 17:47:38;;;;;;;7.22;3.25;;;;;;;13.67;65.04;101564.72;6249673;28;20424;-72
2022/04/26 17:50:40;;;;;;;7.97;3.47;;;;;;;13.49;65.50;101570.09;6248867;28;20053;-71
2022/04/26 17:57:01;;;;;;;5.80;2.63;;;;;;;13.13;65.93;101578.97;6250130;28;20053;-71
2022/04/26 18:00:04;;;;;;;4.40;2.50;;;;;;;13.13;67.00;101582.44;6249277;28;20064;-70
2022/04/26 18:03:05;;;;;;;7.18;2.65;;;;;;;13.03;67.87;101589.09;6249374;28;20076;-72
2022/04/26 18:06:08;;;;;;;7.57;2.85;;;;;;;13.02;68.61;101595.31;6248988;28;20056;-72
2022/04/26 18:09:10;;;;;;;8.75;5.57;;;;;;;12.87;68.69;101614.53;6249292;28;20092;-72
2022/04/26 18:12:13;;;;;;;7.15;3.67;;;;;;;12.79;69.18;101614.91;6248298;28;20053;-73
2022/04/26 18:15:15;;;;;;;7.90;2.50;;;;;;;12.74;69.56;101626.63;6249212;28;20049;-70
2022/04/26 18:18:16;;;;;;;3.33;1.98;;;;;;;12.49;69.82;101640.09;6248973;28;20110;-70
2022/04/26 18:21:19;;;;;;;3.90;1.80;;;;;;;12.44;68.67;101638.56;6247954;28;20046;-71
2022/04/26 18:24:22;;;;;;;2.03;1.67;;;;;;;12.13;70.54;101654.94;6247985;28;20516;-69
2022/04/26 18:27:23;;;;;;;3.38;1.95;;;;;;;12.07;71.15;101668.34;6229980;28;20050;-70
2022/04/26 18:30:25;;;;;;;2.28;1.92;;;;;;;11.97;71.67;101671.47;6223577;28;20049;-70
2022/04/26 18:33:26;;;;;;;4.13;1.80;;;;;;;11.84;71.70;101668.53;6242384;28;20512;-70
2022/04/26 18:36:28;;;;;;;3.55;1.75;;;;;;;11.68;72.19;101682.34;6244003;28;20056;-70